CheckWX is a tool to help pilots better visualize weather data.  It is not intended as a substitute for an official pre-flight weather briefing.

18:36:38 UTC

KNTU METAR
Oceana NAS / Apollo Soucek Field Airport
Virginia Beach, Virginia, USA
Current

41 mins ago

KNTU 261756Z 36018G23KT 10SM FEW250 09/M03 A3020 RMK AO2 PK WND 34026/1659 SLP229 T00941033 10094 20061 51007
Observed
Mar-26 @ 17:56 UTC
Wind
  • 360° at 18 KTS
  • Gusting to 23 KTS
Visibility
10 SM
Flight Rules
VFR
Cloud Levels
  • Few at 25,000' AGL
Temperature
C / 48°F
Dewpoint
-3°C / 27°F
Humidity
43%
Altimeter
30.2" Hg
Pressure
1022.9 hPa
Previous

2 hours ago

KNTU 261656Z 35017G27KT 10SM FEW250 09/M03 A3020 RMK AO2 PK WND 34027/1654 SLP228 T00891028
Observed
Mar-26 @ 16:56 UTC
Wind
  • 350° at 17 KTS
  • Gusting to 27 KTS
Visibility
10 SM
Flight Rules
VFR
Cloud Levels
  • Few at 25,000' AGL
Temperature
C / 48°F
Dewpoint
-3°C / 27°F
Humidity
43%
Altimeter
30.2" Hg
Pressure
1022.8 hPa
Previous

3 hours ago

KNTU 261556Z 03014G25KT 10SM FEW060 SCT250 08/M04 A3020 RMK AO2 SLP228 T00831044
Observed
Mar-26 @ 15:56 UTC
Wind
  • 030° at 14 KTS
  • Gusting to 25 KTS
Visibility
10 SM
Flight Rules
VFR
Cloud Levels
  • Few at 6,000' AGL
  • Scattered at 25,000' AGL
Temperature
C / 46°F
Dewpoint
-4°C / 25°F
Humidity
43%
Altimeter
30.2" Hg
Pressure
1022.8 hPa